Charter Quote
Worldwide +1-877-727-2538 Call
Select Language Lang
SAFETY RELIABILITY EXPERIENCE

Private Jet Charter Services - Luogang (ZSOF)

Paramount Business Jets offers private jet charter flights and luxury airliner charters to and from Luogang.

AIRPORT INFORMATION
ICAOZSOF
LOCATIONHefei, China
FACILITY TYPEAIRPORT

At Paramount Business Jets you can hire chartered private jets to and from Luogang with as little as 4 hours of notice. All flights booked via Paramount Business Jets are operated by certified direct air carriers that meet and exceed the FAA part 135 and 121 protocol or a foreign equivalent safety authority. Furthermore, Paramount Business Jets subscribes to ARGUS for their third party safety checks of operators, aircraft, and crews prior each and every flight to and from Luogang and worldwide.

  • Quote a trip using Luogang or call us 24/7 - 365 days a year at +1-877-727-2538.
Questions? Call +1-877-727-2538

METAR Weather Data at Luogang, ZSOF

STATIONZSOF
OBSERVEDMon Jul 22, 10:00 UTC
NOWMon Jul 22, 10:18 UTC
AGE18 min ago
WINDSSE at 9 mph
VISIBILITY16 miles
CLOUDSscattered clouds
TEMP97°F (36°C)
DEWPT75°F (24°C)
HUMIDITY50%
HEAT INDEX110°F (43°C)
BAROMETER999 hPa (29.5 in Hg)
METARZSOF 221000Z 15004MPS 9999 FEW026CB SCT033 36/24 Q0999 NOSIG

Call us on +1-877-727-2538 (24 Hours) to Hire a Private Jet or Get a Quick Quote.

Find Airports Near any Location

Processing
...